createdAt,value
2022-11-06T00:00:40.785Z,5.13
2022-11-06T00:03:08.448Z,5.67
2022-11-06T00:05:53.770Z,9.20
2022-11-06T00:08:28.611Z,7.33
2022-11-06T00:10:56.158Z,6.73
2022-11-06T00:13:25.461Z,6.47
2022-11-06T00:15:53.043Z,6.80
2022-11-06T00:18:20.679Z,6.93
2022-11-06T00:20:48.216Z,6.73
2022-11-06T00:23:15.772Z,6.67
2022-11-06T00:25:43.592Z,6.67
2022-11-06T00:28:11.565Z,7.07
2022-11-06T00:30:40.811Z,6.60
2022-11-06T00:33:10.596Z,6.83
2022-11-06T00:35:38.515Z,6.50
2022-11-06T00:38:06.291Z,7.03
2022-11-06T00:40:34.035Z,6.13
2022-11-06T00:43:01.606Z,6.27
2022-11-06T00:45:29.166Z,6.33
2022-11-06T00:47:58.083Z,6.57
2022-11-06T00:50:26.408Z,7.27
2022-11-06T00:52:54.569Z,6.87
2022-11-06T00:55:22.275Z,6.70
2022-11-06T00:57:49.842Z,5.73
2022-11-06T01:00:20.381Z,6.07
2022-11-06T01:02:48.094Z,5.73
2022-11-06T01:05:17.482Z,5.53
2022-11-06T01:07:45.047Z,5.73
2022-11-06T01:10:12.607Z,5.47
2022-11-06T01:12:40.171Z,5.90
2022-11-06T01:15:08.251Z,5.67
2022-11-06T01:17:36.019Z,6.07
2022-11-06T01:20:03.768Z,6.53
2022-11-06T01:22:32.718Z,6.70
2022-11-06T01:25:00.423Z,7.00
2022-11-06T01:27:28.113Z,6.93
2022-11-06T01:29:55.949Z,6.83
2022-11-06T01:32:23.607Z,6.40
2022-11-06T01:34:51.252Z,5.97
2022-11-06T01:37:18.981Z,6.00
2022-11-06T01:39:49.566Z,7.60
2022-11-06T01:42:18.389Z,6.80
2022-11-06T01:45:05.887Z,9.23
2022-11-06T01:47:33.453Z,6.90
2022-11-06T01:50:02.463Z,6.37
2022-11-06T01:52:31.955Z,7.83
2022-11-06T01:55:04.999Z,7.10
2022-11-06T01:57:32.566Z,7.20
2022-11-06T02:00:00.393Z,6.57
2022-11-06T02:02:28.421Z,6.43
2022-11-06T02:04:56.027Z,6.50
2022-11-06T02:07:24.154Z,6.87
2022-11-06T02:09:51.714Z,6.13
2022-11-06T02:12:25.388Z,6.50
2022-11-06T02:14:58.802Z,6.53
2022-11-06T02:17:31.529Z,6.60
2022-11-06T02:20:02.538Z,6.57
2022-11-06T02:22:41.107Z,6.77
2022-11-06T02:25:22.172Z,6.70
2022-11-06T02:27:52.792Z,6.40
2022-11-06T02:30:20.431Z,6.70
2022-11-06T02:32:51.420Z,5.67
2022-11-06T02:35:21.292Z,6.30
2022-11-06T02:37:50.546Z,6.17
2022-11-06T02:40:18.645Z,5.97
2022-11-06T02:42:48.002Z,7.17
2022-11-06T02:45:17.274Z,6.93
2022-11-06T02:47:45.021Z,5.83
2022-11-06T02:50:14.386Z,6.00
2022-11-06T02:52:44.011Z,5.93
2022-11-06T02:55:15.015Z,6.03
2022-11-06T02:57:44.131Z,5.57
2022-11-06T03:00:13.129Z,5.40
2022-11-06T03:02:44.748Z,5.40
2022-11-06T03:05:14.500Z,7.97
2022-11-06T03:07:45.010Z,5.80
2022-11-06T03:10:13.197Z,5.50
2022-11-06T03:12:47.815Z,5.77
2022-11-06T03:15:19.017Z,4.87
2022-11-06T03:17:50.845Z,5.27
2022-11-06T03:20:21.603Z,5.33
2022-11-06T03:22:53.819Z,4.97
2022-11-06T03:25:22.404Z,5.10
2022-11-06T03:27:56.114Z,5.17
2022-11-06T03:30:23.685Z,5.27
2022-11-06T03:32:55.066Z,4.70
2022-11-06T03:35:25.362Z,4.93
2022-11-06T03:37:55.611Z,5.00
2022-11-06T03:40:25.283Z,5.43
2022-11-06T03:42:54.122Z,4.80
2022-11-06T03:45:23.702Z,4.80
2022-11-06T03:47:53.161Z,5.33
2022-11-06T03:50:24.879Z,5.40
2022-11-06T03:52:54.324Z,5.23
2022-11-06T03:55:24.264Z,5.20
2022-11-06T03:57:53.855Z,5.23
2022-11-06T04:00:21.575Z,4.70
2022-11-06T04:02:51.742Z,5.17
2022-11-06T04:05:21.730Z,5.53
2022-11-06T04:08:05.497Z,5.00
2022-11-06T04:10:51.239Z,5.47
2022-11-06T04:13:37.986Z,4.90
2022-11-06T04:16:05.853Z,4.90
2022-11-06T04:18:33.399Z,5.20
2022-11-06T04:21:22.893Z,5.30
2022-11-06T04:24:12.709Z,5.90
2022-11-06T04:26:43.750Z,6.27
2022-11-06T04:29:14.899Z,6.30
2022-11-06T04:31:47.314Z,5.20
2022-11-06T04:34:18.062Z,4.50
2022-11-06T04:36:48.449Z,4.30
2022-11-06T04:39:20.162Z,4.50
2022-11-06T04:41:52.444Z,4.20
2022-11-06T04:44:24.993Z,3.73
2022-11-06T04:46:54.225Z,4.20
2022-11-06T04:49:22.638Z,4.10
2022-11-06T04:51:50.342Z,4.00
2022-11-06T04:54:19.757Z,3.93
2022-11-06T04:56:47.319Z,3.60
2022-11-06T04:59:16.174Z,3.50
2022-11-06T05:01:43.827Z,3.90
2022-11-06T05:04:12.264Z,3.80
2022-11-06T05:06:39.821Z,3.77
2022-11-06T05:09:07.406Z,4.20
2022-11-06T05:11:38.293Z,4.27
2022-11-06T05:14:05.921Z,4.50
2022-11-06T05:16:33.463Z,4.10
2022-11-06T05:19:01.031Z,4.07
2022-11-06T05:21:45.976Z,3.87
2022-11-06T05:24:13.514Z,4.07
2022-11-06T05:26:42.434Z,4.30
2022-11-06T05:29:09.967Z,4.17
2022-11-06T05:31:37.532Z,4.20
2022-11-06T05:34:05.099Z,4.10
2022-11-06T05:36:32.675Z,3.80
2022-11-06T05:39:00.231Z,4.40
2022-11-06T05:41:28.229Z,4.43
2022-11-06T05:43:57.464Z,4.40
2022-11-06T05:46:46.907Z,4.50
2022-11-06T05:49:12.694Z,4.57
2022-11-06T05:51:40.233Z,4.50
2022-11-06T05:54:07.790Z,4.20
2022-11-06T05:56:35.359Z,3.97
2022-11-06T05:59:04.350Z,4.57
2022-11-06T06:01:32.001Z,4.00
2022-11-06T06:03:59.661Z,3.90
2022-11-06T06:06:27.426Z,4.83
2022-11-06T06:08:54.994Z,4.17
2022-11-06T06:11:22.550Z,4.23
2022-11-06T06:13:50.124Z,4.57
2022-11-06T06:16:19.082Z,4.80
2022-11-06T06:18:46.638Z,5.00
2022-11-06T06:21:14.202Z,4.90
2022-11-06T06:23:41.825Z,5.30
2022-11-06T06:26:09.770Z,4.87
2022-11-06T06:28:37.347Z,5.00
2022-11-06T06:31:05.278Z,4.90
2022-11-06T06:33:34.426Z,5.40
2022-11-06T06:36:03.898Z,6.10
2022-11-06T06:38:31.456Z,5.90
2022-11-06T06:41:01.639Z,6.73
2022-11-06T06:43:29.216Z,6.83
2022-11-06T06:45:58.390Z,6.47
2022-11-06T06:48:25.986Z,6.77
2022-11-06T06:50:57.361Z,6.70
2022-11-06T06:53:25.066Z,6.27
2022-11-06T06:55:52.690Z,7.17
2022-11-06T06:58:20.971Z,7.60
2022-11-06T07:00:48.887Z,7.63
2022-11-06T07:03:16.516Z,7.00
2022-11-06T07:05:44.088Z,7.57
2022-11-06T07:08:13.387Z,7.43
2022-11-06T07:10:41.156Z,6.83
2022-11-06T07:13:08.720Z,8.17
2022-11-06T07:15:36.273Z,8.23
2022-11-06T07:18:03.902Z,8.30
2022-11-06T07:20:31.757Z,7.27
2022-11-06T07:22:59.516Z,7.40
2022-11-06T07:25:28.450Z,7.40
2022-11-06T07:28:01.651Z,7.80
2022-11-06T07:30:30.219Z,7.63
2022-11-06T07:32:57.772Z,8.37
2022-11-06T07:35:25.334Z,8.37
2022-11-06T07:37:52.883Z,8.20
2022-11-06T07:40:20.479Z,6.80
2022-11-06T07:42:49.558Z,7.63
2022-11-06T07:45:17.750Z,7.27
2022-11-06T07:47:45.317Z,7.23
2022-11-06T07:50:12.856Z,6.67
2022-11-06T07:52:40.420Z,5.63
2022-11-06T07:55:08.368Z,5.47
2022-11-06T07:57:36.747Z,5.67
2022-11-06T08:00:07.165Z,5.43
2022-11-06T08:02:40.297Z,5.87
2022-11-06T08:05:08.438Z,5.37
2022-11-06T08:07:36.007Z,5.40
2022-11-06T08:10:03.724Z,5.63
2022-11-06T08:12:31.285Z,5.50
2022-11-06T08:14:58.872Z,6.13
2022-11-06T08:17:29.958Z,6.43
2022-11-06T08:19:57.558Z,6.60
2022-11-06T08:22:25.126Z,6.70
2022-11-06T08:24:52.691Z,6.23
2022-11-06T08:27:20.244Z,6.83
2022-11-06T08:29:47.835Z,6.40
2022-11-06T08:32:15.490Z,6.37
2022-11-06T08:34:44.399Z,8.10
2022-11-06T08:37:12.198Z,9.47
2022-11-06T08:39:39.730Z,9.43
2022-11-06T08:42:07.332Z,11.07
2022-11-06T08:44:34.932Z,11.37
2022-11-06T08:47:03.298Z,10.40
2022-11-06T08:49:30.854Z,10.43
2022-11-06T08:51:59.789Z,11.07
2022-11-06T08:54:27.372Z,11.23
2022-11-06T08:56:54.931Z,11.63
2022-11-06T08:59:22.487Z,11.00
2022-11-06T09:01:50.235Z,10.67
2022-11-06T09:04:17.919Z,10.57
2022-11-06T09:06:45.542Z,10.90
2022-11-06T09:09:14.482Z,11.23
2022-11-06T09:11:42.031Z,9.20
2022-11-06T09:14:09.627Z,9.57
2022-11-06T09:16:37.174Z,8.83
2022-11-06T09:19:04.737Z,9.47
2022-11-06T09:21:32.611Z,9.93
2022-11-06T09:24:00.134Z,9.97
2022-11-06T09:26:29.438Z,8.87
2022-11-06T09:28:56.987Z,9.30
2022-11-06T09:31:24.590Z,8.67
2022-11-06T09:33:52.215Z,8.47
2022-11-06T09:36:19.828Z,7.40
2022-11-06T09:38:47.391Z,7.80
2022-11-06T09:41:19.262Z,7.13
2022-11-06T09:44:09.250Z,7.50
2022-11-06T09:46:40.255Z,7.07
2022-11-06T09:49:09.698Z,7.47
2022-11-06T09:51:39.322Z,8.93
2022-11-06T09:54:11.052Z,8.43
2022-11-06T09:56:40.838Z,6.70
2022-11-06T09:59:11.675Z,6.63
2022-11-06T10:01:42.494Z,6.67
2022-11-06T10:04:16.785Z,6.70
2022-11-06T10:06:44.335Z,6.73
2022-11-06T10:09:12.146Z,6.73
2022-11-06T10:11:49.562Z,6.27
2022-11-06T10:14:21.499Z,6.23
2022-11-06T10:16:53.386Z,6.53
2022-11-06T10:19:24.326Z,5.73
2022-11-06T10:21:55.726Z,5.53
2022-11-06T10:24:24.423Z,5.27
2022-11-06T10:26:53.369Z,5.30
2022-11-06T10:29:33.777Z,6.30
2022-11-06T10:32:09.206Z,5.80
2022-11-06T10:34:39.643Z,5.63
2022-11-06T10:37:09.798Z,5.53
2022-11-06T10:39:37.638Z,6.20
2022-11-06T10:42:07.107Z,6.13
2022-11-06T10:44:38.175Z,6.13
2022-11-06T10:47:08.511Z,6.00
2022-11-06T10:49:37.953Z,6.10
2022-11-06T10:52:18.807Z,5.90
2022-11-06T10:54:51.007Z,5.93
2022-11-06T10:57:28.138Z,5.90
2022-11-06T10:59:57.061Z,5.90
2022-11-06T11:02:27.414Z,5.80
2022-11-06T11:04:58.043Z,5.33
2022-11-06T11:07:26.487Z,5.50
2022-11-06T11:09:54.366Z,5.90
2022-11-06T11:12:23.441Z,5.47
2022-11-06T11:15:12.025Z,5.80
2022-11-06T11:17:40.573Z,5.60
2022-11-06T11:20:29.212Z,5.70
2022-11-06T11:23:05.853Z,5.57
2022-11-06T11:25:33.556Z,5.90
2022-11-06T11:28:04.825Z,6.17
2022-11-06T11:30:34.077Z,6.20
2022-11-06T11:33:02.702Z,6.13
2022-11-06T11:35:31.249Z,6.13
2022-11-06T11:38:06.908Z,6.57
2022-11-06T11:40:36.866Z,6.00
2022-11-06T11:43:21.870Z,6.50
2022-11-06T11:46:03.934Z,6.00
2022-11-06T11:48:41.891Z,5.83
2022-11-06T11:51:13.746Z,6.13
2022-11-06T11:53:41.428Z,5.80
2022-11-06T11:56:15.167Z,6.50
2022-11-06T11:58:49.338Z,6.43
2022-11-06T12:01:18.438Z,5.60
2022-11-06T12:03:49.831Z,5.87
2022-11-06T12:06:18.927Z,5.67
2022-11-06T12:08:48.038Z,5.90
2022-11-06T12:11:17.131Z,5.73
2022-11-06T12:13:44.701Z,5.50
2022-11-06T12:16:15.322Z,6.13
2022-11-06T12:18:46.662Z,5.73
2022-11-06T12:21:16.619Z,5.93
2022-11-06T12:23:46.115Z,5.97
2022-11-06T12:26:17.337Z,5.87
2022-11-06T12:28:46.656Z,6.00
2022-11-06T12:31:16.991Z,6.40
2022-11-06T12:34:05.529Z,6.27
2022-11-06T12:36:39.191Z,6.17
2022-11-06T12:39:11.489Z,6.27
2022-11-06T12:41:40.503Z,6.20
2022-11-06T12:44:10.517Z,6.07
2022-11-06T12:46:40.833Z,6.53
2022-11-06T12:49:23.286Z,6.43
2022-11-06T12:51:57.154Z,6.20
2022-11-06T12:54:39.147Z,6.07
2022-11-06T12:57:10.354Z,6.63
2022-11-06T12:59:45.092Z,6.13
2022-11-06T13:02:20.797Z,6.10
2022-11-06T13:04:53.067Z,5.77
2022-11-06T13:07:27.487Z,6.20
2022-11-06T13:10:01.518Z,6.30
2022-11-06T13:12:34.304Z,6.73
2022-11-06T13:15:07.061Z,5.73
2022-11-06T13:17:38.875Z,6.37
2022-11-06T13:20:10.016Z,6.77
2022-11-06T13:22:40.487Z,6.37
2022-11-06T13:25:11.895Z,6.53
2022-11-06T13:27:40.689Z,6.90
2022-11-06T13:30:14.341Z,6.80
2022-11-06T13:32:43.043Z,6.73
2022-11-06T13:35:14.537Z,6.57
2022-11-06T13:37:45.046Z,6.33
2022-11-06T13:40:19.546Z,6.33
2022-11-06T13:42:49.257Z,6.80
2022-11-06T13:45:17.309Z,6.70
2022-11-06T13:47:50.205Z,7.00
2022-11-06T13:50:23.157Z,6.83
2022-11-06T13:52:54.963Z,7.27
2022-11-06T13:55:25.867Z,7.10
2022-11-06T13:58:05.166Z,6.93
2022-11-06T14:00:38.608Z,7.00
2022-11-06T14:03:17.039Z,6.90
2022-11-06T14:05:47.457Z,7.33
2022-11-06T14:08:18.681Z,8.10
2022-11-06T14:10:49.830Z,7.00
2022-11-06T14:13:17.624Z,7.23
2022-11-06T14:15:46.825Z,7.80
2022-11-06T14:18:15.471Z,7.03
2022-11-06T14:20:43.564Z,7.57
2022-11-06T14:23:29.687Z,7.20
2022-11-06T14:26:00.343Z,7.43
2022-11-06T14:28:32.246Z,7.07
2022-11-06T14:31:17.952Z,10.10
2022-11-06T14:34:01.729Z,8.13
2022-11-06T14:36:31.234Z,6.93
2022-11-06T14:38:58.807Z,7.83
2022-11-06T14:41:47.938Z,7.57
2022-11-06T14:44:21.602Z,7.70
2022-11-06T14:46:50.599Z,7.60
2022-11-06T14:49:22.447Z,7.40
2022-11-06T14:51:57.899Z,7.20
2022-11-06T14:54:25.606Z,8.00
2022-11-06T14:56:54.046Z,7.93
2022-11-06T14:59:28.515Z,7.77
2022-11-06T15:01:57.670Z,8.13
2022-11-06T15:04:26.559Z,7.60
2022-11-06T15:06:54.130Z,7.13
2022-11-06T15:09:36.542Z,7.57
2022-11-06T15:12:07.200Z,7.60
2022-11-06T15:15:07.837Z,7.67
2022-11-06T15:17:37.153Z,8.03
2022-11-06T15:20:13.898Z,7.43
2022-11-06T15:22:44.755Z,7.77
2022-11-06T15:25:19.890Z,7.10
2022-11-06T15:27:49.430Z,7.60
2022-11-06T15:30:18.606Z,8.60
2022-11-06T15:32:48.219Z,8.43
2022-11-06T15:35:18.126Z,8.00
2022-11-06T15:37:46.867Z,7.50
2022-11-06T15:40:24.517Z,7.27
2022-11-06T15:42:52.268Z,7.20
2022-11-06T15:45:24.411Z,7.53
2022-11-06T15:47:57.614Z,7.23
2022-11-06T15:50:25.933Z,7.93
2022-11-06T15:52:53.885Z,7.73
2022-11-06T15:55:29.050Z,8.17
2022-11-06T15:58:06.150Z,7.70
2022-11-06T16:00:35.733Z,7.23
2022-11-06T16:03:06.222Z,12.40
2022-11-06T16:05:35.251Z,12.13
2022-11-06T16:08:04.075Z,11.73
2022-11-06T16:10:31.633Z,10.63
2022-11-06T16:12:59.295Z,11.40
2022-11-06T16:15:50.654Z,11.00
2022-11-06T16:18:22.621Z,8.63
2022-11-06T16:20:52.029Z,7.90
2022-11-06T16:23:22.268Z,8.43
2022-11-06T16:25:58.650Z,8.27
2022-11-06T16:28:26.643Z,8.77
2022-11-06T16:30:54.255Z,10.10
2022-11-06T16:33:24.047Z,10.13
2022-11-06T16:35:55.271Z,9.20
2022-11-06T16:38:45.767Z,8.50
2022-11-06T16:41:34.170Z,8.43
2022-11-06T16:44:21.752Z,7.57
2022-11-06T16:47:09.793Z,8.47
2022-11-06T16:49:39.137Z,9.23
2022-11-06T16:52:18.299Z,8.67
2022-11-06T16:54:46.899Z,8.63
2022-11-06T16:57:16.879Z,8.60
2022-11-06T16:59:44.735Z,9.37
2022-11-06T17:02:21.055Z,10.17
2022-11-06T17:04:50.199Z,10.00
2022-11-06T17:07:19.887Z,16.83
2022-11-06T17:09:47.554Z,14.50
2022-11-06T17:12:15.118Z,16.83
2022-11-06T17:14:46.876Z,12.93
2022-11-06T17:17:25.709Z,12.33
2022-11-06T17:19:54.631Z,13.03
2022-11-06T17:22:23.386Z,11.47
2022-11-06T17:24:50.948Z,12.37
2022-11-06T17:27:18.504Z,12.80
2022-11-06T17:29:46.076Z,12.53
2022-11-06T17:32:13.647Z,12.77
2022-11-06T17:34:41.216Z,12.33
2022-11-06T17:37:12.195Z,12.33
2022-11-06T17:39:39.741Z,11.97
2022-11-06T17:42:07.307Z,11.47
2022-11-06T17:44:34.846Z,11.30
2022-11-06T17:47:02.395Z,11.13
2022-11-06T17:49:29.965Z,10.47
2022-11-06T17:52:00.895Z,11.00
2022-11-06T17:54:31.982Z,10.80
2022-11-06T17:57:00.345Z,11.37
2022-11-06T17:59:28.343Z,11.67
2022-11-06T18:01:56.336Z,11.23
2022-11-06T18:04:25.051Z,11.73
2022-11-06T18:06:53.375Z,11.87
2022-11-06T18:09:21.546Z,10.40
2022-11-06T18:11:51.095Z,10.13
2022-11-06T18:14:18.707Z,9.43
2022-11-06T18:16:46.287Z,10.93
2022-11-06T18:19:15.811Z,12.23
2022-11-06T18:21:43.557Z,9.80
2022-11-06T18:24:11.201Z,10.20
2022-11-06T18:26:38.777Z,9.93
2022-11-06T18:29:08.199Z,12.03
2022-11-06T18:31:35.757Z,12.73
2022-11-06T18:34:03.919Z,17.97
2022-11-06T18:36:32.744Z,15.60
2022-11-06T18:39:00.294Z,15.73
2022-11-06T18:41:29.753Z,15.37
2022-11-06T18:43:57.960Z,14.30
2022-11-06T18:46:27.827Z,12.13
2022-11-06T18:48:56.061Z,11.50
2022-11-06T18:51:34.674Z,12.60
2022-11-06T18:54:05.537Z,12.60
2022-11-06T18:56:33.556Z,12.17
2022-11-06T18:59:01.132Z,11.33
2022-11-06T19:01:30.240Z,11.07
2022-11-06T19:03:57.987Z,11.23
2022-11-06T19:06:25.530Z,11.70
2022-11-06T19:08:53.114Z,11.70
2022-11-06T19:11:20.887Z,11.77
2022-11-06T19:13:48.896Z,11.03
2022-11-06T19:16:18.469Z,10.43
2022-11-06T19:21:29.448Z,11.17
2022-11-06T19:24:03.493Z,12.33
2022-11-06T19:26:32.944Z,12.60
2022-11-06T19:29:01.124Z,12.70
2022-11-06T19:31:29.971Z,12.53
2022-11-06T19:33:59.632Z,13.47
2022-11-06T19:36:27.540Z,13.30
2022-11-06T19:38:57.115Z,12.67
2022-11-06T19:41:24.987Z,11.80
2022-11-06T19:43:52.539Z,12.33
2022-11-06T19:46:25.670Z,12.73
2022-11-06T19:48:56.010Z,12.70
2022-11-06T19:51:25.766Z,13.37
2022-11-06T19:53:54.112Z,13.03
2022-11-06T19:56:22.209Z,11.97
2022-11-06T19:58:50.606Z,12.03
2022-11-06T20:01:18.372Z,11.70
2022-11-06T20:03:46.012Z,12.07
2022-11-06T20:06:13.720Z,12.33
2022-11-06T20:08:42.929Z,12.60
2022-11-06T20:11:12.184Z,12.00
2022-11-06T20:13:39.895Z,11.63
2022-11-06T20:16:08.537Z,11.17
2022-11-06T20:18:36.602Z,11.73
2022-11-06T20:21:05.014Z,11.43
2022-11-06T20:23:32.610Z,11.10
2022-11-06T20:26:01.586Z,10.83
2022-11-06T20:28:29.274Z,9.50
2022-11-06T20:30:57.011Z,9.00
2022-11-06T20:33:24.637Z,8.97
2022-11-06T20:35:52.865Z,9.27
2022-11-06T20:38:20.730Z,8.80
2022-11-06T20:40:48.488Z,8.37
2022-11-06T20:43:17.762Z,7.03
2022-11-06T20:45:45.563Z,7.00
2022-11-06T20:48:13.113Z,6.97
2022-11-06T20:50:40.910Z,7.10
2022-11-06T20:53:08.480Z,6.53
2022-11-06T20:55:36.118Z,6.80
2022-11-06T20:58:03.631Z,6.13
2022-11-06T21:00:32.572Z,6.47
2022-11-06T21:03:01.989Z,7.10
2022-11-06T21:05:29.748Z,6.87
2022-11-06T21:07:58.233Z,6.40
2022-11-06T21:10:25.759Z,6.43
2022-11-06T21:12:53.319Z,6.70
2022-11-06T21:15:20.879Z,6.30
2022-11-06T21:17:49.773Z,5.57
2022-11-06T21:20:22.709Z,6.80
2022-11-06T21:22:50.784Z,8.83
2022-11-06T21:25:18.372Z,9.03
2022-11-06T21:27:45.919Z,8.70
2022-11-06T21:30:13.481Z,8.47
2022-11-06T21:32:41.165Z,8.87
2022-11-06T21:35:10.547Z,9.90
2022-11-06T21:37:38.205Z,9.87
2022-11-06T21:40:06.472Z,9.60
2022-11-06T21:42:34.091Z,9.70
2022-11-06T21:45:01.918Z,9.80
2022-11-06T21:47:29.448Z,10.20
2022-11-06T21:49:57.014Z,10.70
2022-11-06T21:52:43.653Z,10.57
2022-11-06T21:55:28.480Z,10.63
2022-11-06T21:57:56.067Z,10.30
2022-11-06T22:00:23.604Z,11.27
2022-11-06T22:02:51.714Z,10.53
2022-11-06T22:05:19.303Z,11.00
2022-11-06T22:07:48.222Z,8.87
2022-11-06T22:10:15.982Z,9.47
2022-11-06T22:12:43.546Z,10.30
2022-11-06T22:15:11.256Z,9.03
2022-11-06T22:17:38.815Z,9.80
2022-11-06T22:20:06.922Z,9.67
2022-11-06T22:22:34.501Z,9.80
2022-11-06T22:25:03.447Z,9.63
2022-11-06T22:27:31.023Z,10.60
2022-11-06T22:29:58.654Z,9.33
2022-11-06T22:32:26.323Z,9.00
2022-11-06T22:34:53.856Z,9.27
2022-11-06T22:37:21.414Z,9.80
2022-11-06T22:39:49.048Z,9.77
2022-11-06T22:42:17.991Z,9.70
2022-11-06T22:44:45.774Z,9.53
2022-11-06T22:47:13.448Z,10.20
2022-11-06T22:49:40.984Z,9.27
2022-11-06T22:52:08.544Z,9.87
2022-11-06T22:54:36.989Z,9.50
2022-11-06T22:57:04.595Z,10.40
2022-11-06T22:59:33.543Z,11.07
2022-11-06T23:02:01.193Z,9.73
2022-11-06T23:04:28.783Z,9.77
2022-11-06T23:06:56.338Z,9.73
2022-11-06T23:09:23.883Z,9.73
2022-11-06T23:11:51.436Z,9.80
2022-11-06T23:14:18.991Z,9.93
2022-11-06T23:17:01.587Z,10.30
2022-11-06T23:19:30.130Z,10.30
2022-11-06T23:22:11.822Z,9.77
2022-11-06T23:24:39.522Z,10.13
2022-11-06T23:27:07.076Z,10.80
2022-11-06T23:29:34.591Z,10.27
2022-11-06T23:32:03.514Z,10.63
2022-11-06T23:34:31.060Z,10.10
2022-11-06T23:36:58.672Z,10.20
2022-11-06T23:39:26.248Z,9.93
2022-11-06T23:41:53.817Z,10.00
2022-11-06T23:44:38.807Z,9.67
2022-11-06T23:47:07.722Z,9.87
2022-11-06T23:49:35.291Z,9.43
2022-11-06T23:52:02.859Z,9.93
2022-11-06T23:54:30.409Z,10.57
2022-11-06T23:56:58.009Z,9.47
2022-11-06T23:59:25.543Z,9.57
